createdAt,value
2023-06-09T00:00:01.445Z,74.57
2023-06-09T00:01:02.326Z,75.01
2023-06-09T00:02:03.307Z,75.21
2023-06-09T00:03:05.254Z,75.31
2023-06-09T00:04:04.915Z,75.21
2023-06-09T00:05:05.555Z,75.21
2023-06-09T00:06:06.105Z,75.52
2023-06-09T00:07:07.051Z,75.52
2023-06-09T00:08:07.944Z,75.11
2023-06-09T00:09:08.845Z,75.31
2023-06-09T00:10:09.769Z,75.31
2023-06-09T00:11:10.680Z,75.42
2023-06-09T00:12:11.574Z,75.31
2023-06-09T00:13:12.516Z,75.42
2023-06-09T00:14:13.398Z,75.52
2023-06-09T00:15:14.304Z,75.62
2023-06-09T00:16:15.199Z,75.42
2023-06-09T00:17:16.286Z,75.52
2023-06-09T00:18:16.721Z,75.52
2023-06-09T00:19:17.631Z,75.42
2023-06-09T00:20:18.542Z,75.76
2023-06-09T00:21:19.345Z,75.45
2023-06-09T00:22:20.271Z,75.11
2023-06-09T00:23:21.192Z,75.11
2023-06-09T00:24:22.068Z,75.21
2023-06-09T00:25:22.968Z,75.21
2023-06-09T00:26:23.947Z,75.21
2023-06-09T00:27:24.842Z,75.55
2023-06-09T00:28:25.742Z,75.45
2023-06-09T00:29:26.634Z,75.45
2023-06-09T00:30:38.900Z,75.55
2023-06-09T00:31:29.420Z,75.65
2023-06-09T00:32:29.315Z,75.35
2023-06-09T00:33:30.230Z,75.35
2023-06-09T00:34:31.211Z,75.25
2023-06-09T00:35:31.706Z,75.55
2023-06-09T00:36:32.610Z,75.76
2023-06-09T00:37:33.516Z,75.76
2023-06-09T00:38:34.443Z,75.85
2023-06-09T00:39:35.594Z,75.76
2023-06-09T00:40:35.999Z,75.85
2023-06-09T00:41:36.919Z,75.45
2023-06-09T00:42:37.803Z,75.85
2023-06-09T00:43:38.714Z,75.55
2023-06-09T00:44:39.692Z,75.85
2023-06-09T00:45:40.110Z,75.76
2023-06-09T00:46:41.024Z,75.55
2023-06-09T00:47:42.022Z,75.55
2023-06-09T00:48:42.891Z,75.76
2023-06-09T00:49:44.281Z,75.76
2023-06-09T00:50:44.681Z,75.35
2023-06-09T00:51:45.605Z,75.65
2023-06-09T00:52:46.530Z,75.65
2023-06-09T00:53:47.438Z,75.65
2023-06-09T00:54:48.369Z,75.85
2023-06-09T00:55:49.284Z,75.85
2023-06-09T00:56:50.196Z,76.16
2023-06-09T00:57:51.081Z,76.06
2023-06-09T00:58:52.021Z,76.29
2023-06-09T00:59:52.910Z,76.29
2023-06-09T01:00:53.821Z,76.50
2023-06-09T01:01:54.713Z,76.70
2023-06-09T01:02:55.864Z,76.70
2023-06-09T01:03:56.443Z,76.70
2023-06-09T01:04:56.911Z,76.80
2023-06-09T01:05:57.887Z,77.01
2023-06-09T01:06:58.735Z,76.90
2023-06-09T01:07:59.663Z,76.60
2023-06-09T01:09:00.609Z,76.60
2023-06-09T01:10:01.502Z,76.29
2023-06-09T01:11:02.405Z,76.20
2023-06-09T01:12:03.328Z,76.46
2023-06-09T01:13:04.250Z,76.16
2023-06-09T01:14:05.149Z,76.26
2023-06-09T01:15:06.425Z,76.09
2023-06-09T01:16:06.928Z,75.79
2023-06-09T01:17:07.839Z,75.96
2023-06-09T01:18:08.861Z,76.09
2023-06-09T01:19:09.301Z,75.99
2023-06-09T01:20:10.202Z,75.89
2023-06-09T01:21:11.770Z,76.16
2023-06-09T01:22:11.688Z,75.85
2023-06-09T01:23:12.589Z,75.45
2023-06-09T01:24:13.703Z,75.45
2023-06-09T01:25:14.069Z,75.85
2023-06-09T01:26:15.000Z,76.09
2023-06-09T01:27:15.940Z,75.99
2023-06-09T01:28:16.833Z,76.20
2023-06-09T01:29:17.741Z,76.09
2023-06-09T01:30:18.758Z,76.40
2023-06-09T01:31:19.279Z,76.50
2023-06-09T01:32:20.291Z,76.29
2023-06-09T01:33:20.708Z,76.40
2023-06-09T01:34:21.657Z,76.09
2023-06-09T01:35:22.536Z,75.89
2023-06-09T01:36:23.448Z,75.99
2023-06-09T01:37:24.370Z,75.99
2023-06-09T01:38:25.264Z,75.89
2023-06-09T01:39:26.164Z,75.99
2023-06-09T01:40:27.087Z,75.89
2023-06-09T01:41:28.014Z,75.89
2023-06-09T01:42:28.933Z,75.79
2023-06-09T01:43:29.807Z,75.89
2023-06-09T01:44:30.712Z,75.89
2023-06-09T01:45:31.627Z,75.89
2023-06-09T01:46:32.653Z,75.99
2023-06-09T01:47:33.085Z,75.69
2023-06-09T01:48:33.982Z,75.59
2023-06-09T01:49:34.921Z,75.69
2023-06-09T01:50:35.863Z,75.99
2023-06-09T01:51:36.764Z,75.69
2023-06-09T01:52:37.660Z,75.59
2023-06-09T01:53:38.563Z,75.28
2023-06-09T01:54:39.490Z,75.59
2023-06-09T01:55:40.396Z,75.69
2023-06-09T01:56:41.300Z,75.49
2023-06-09T01:57:42.241Z,75.28
2023-06-09T01:58:43.127Z,75.49
2023-06-09T01:59:44.057Z,75.59
2023-06-09T02:00:44.956Z,75.59
2023-06-09T02:01:45.883Z,75.59
2023-06-09T02:02:46.467Z,75.49
2023-06-09T02:03:47.042Z,75.69
2023-06-09T02:04:50.251Z,75.69
2023-06-09T02:05:48.363Z,75.79
2023-06-09T02:06:49.252Z,75.89
2023-06-09T02:07:50.158Z,75.99
2023-06-09T02:08:51.086Z,76.13
2023-06-09T02:09:51.563Z,76.23
2023-06-09T02:10:52.465Z,76.23
2023-06-09T02:11:53.375Z,76.13
2023-06-09T02:12:54.309Z,76.13
2023-06-09T02:13:55.251Z,76.13
2023-06-09T02:14:56.123Z,76.13
2023-06-09T02:15:57.047Z,75.93
2023-06-09T02:16:57.921Z,75.89
2023-06-09T02:17:58.863Z,75.82
2023-06-09T02:18:59.763Z,76.13
2023-06-09T02:20:00.665Z,76.03
2023-06-09T02:21:01.574Z,76.03
2023-06-09T02:22:02.530Z,76.13
2023-06-09T02:23:03.429Z,76.54
2023-06-09T02:24:04.419Z,76.33
2023-06-09T02:25:05.607Z,76.74
2023-06-09T02:26:06.203Z,76.84
2023-06-09T02:27:07.129Z,77.14
2023-06-09T02:28:08.161Z,77.08
2023-06-09T02:29:08.534Z,77.18
2023-06-09T02:30:09.445Z,77.18
2023-06-09T02:31:10.377Z,77.18
2023-06-09T02:32:11.272Z,77.59
2023-06-09T02:33:12.196Z,77.69
2023-06-09T02:34:13.127Z,77.89
2023-06-09T02:35:14.073Z,77.79
2023-06-09T02:36:14.981Z,77.93
2023-06-09T02:37:15.896Z,78.13
2023-06-09T02:38:16.802Z,78.23
2023-06-09T02:39:17.704Z,78.44
2023-06-09T02:40:18.617Z,78.53
2023-06-09T02:41:19.533Z,78.33
2023-06-09T02:42:20.440Z,78.44
2023-06-09T02:43:21.421Z,78.64
2023-06-09T02:44:22.311Z,78.44
2023-06-09T02:45:23.291Z,78.33
2023-06-09T02:46:24.337Z,78.23
2023-06-09T02:47:24.778Z,77.93
2023-06-09T02:48:25.658Z,78.33
2023-06-09T02:49:26.559Z,78.44
2023-06-09T02:50:27.485Z,78.13
2023-06-09T02:51:28.388Z,78.53
2023-06-09T02:52:29.290Z,78.33
2023-06-09T02:53:30.259Z,78.13
2023-06-09T02:54:30.742Z,78.44
2023-06-09T02:55:31.665Z,78.33
2023-06-09T02:56:32.435Z,78.74
2023-06-09T02:57:33.300Z,78.64
2023-06-09T02:58:34.216Z,78.84
2023-06-09T02:59:35.134Z,78.64
2023-06-09T03:00:37.066Z,78.74
2023-06-09T03:01:36.645Z,78.74
2023-06-09T03:02:37.518Z,79.25
2023-06-09T03:03:38.509Z,79.25
2023-06-09T03:04:39.426Z,78.84
2023-06-09T03:05:40.325Z,79.38
2023-06-09T03:06:41.219Z,79.38
2023-06-09T03:07:43.826Z,79.49
2023-06-09T03:08:43.254Z,79.49
2023-06-09T03:09:43.695Z,79.18
2023-06-09T03:10:45.469Z,79.38
2023-06-09T03:11:45.399Z,79.28
2023-06-09T03:12:46.322Z,79.59
2023-06-09T03:13:47.297Z,79.49
2023-06-09T03:14:49.839Z,79.59
2023-06-09T03:15:48.857Z,79.69
2023-06-09T03:16:49.313Z,79.79
2023-06-09T03:17:49.839Z,79.69
2023-06-09T03:18:50.751Z,79.79
2023-06-09T03:19:51.669Z,80.10
2023-06-09T03:20:52.565Z,80.10
2023-06-09T03:21:53.459Z,80.19
2023-06-09T03:22:54.407Z,80.50
2023-06-09T03:23:55.343Z,80.30
2023-06-09T03:24:56.250Z,80.30
2023-06-09T03:25:57.144Z,80.40
2023-06-09T03:26:58.056Z,80.19
2023-06-09T03:27:58.981Z,80.19
2023-06-09T03:28:59.931Z,79.90
2023-06-09T03:30:00.820Z,80.10
2023-06-09T03:31:01.745Z,80.40
2023-06-09T03:32:02.664Z,80.50
2023-06-09T03:33:03.685Z,80.19
2023-06-09T03:34:04.167Z,80.30
2023-06-09T03:35:05.077Z,80.60
2023-06-09T03:36:06.013Z,80.71
2023-06-09T03:37:07.195Z,80.40
2023-06-09T03:38:07.570Z,80.40
2023-06-09T03:39:08.468Z,80.19
2023-06-09T03:40:09.628Z,80.71
2023-06-09T03:41:10.122Z,80.80
2023-06-09T03:42:11.150Z,80.80
2023-06-09T03:43:11.571Z,80.80
2023-06-09T03:44:12.468Z,80.71
2023-06-09T03:45:13.332Z,80.60
2023-06-09T03:46:14.293Z,80.50
2023-06-09T03:47:15.170Z,80.50
2023-06-09T03:48:16.065Z,80.19
2023-06-09T03:49:16.953Z,80.91
2023-06-09T03:50:17.883Z,80.71
2023-06-09T03:51:18.815Z,81.01
2023-06-09T03:52:19.718Z,81.21
2023-06-09T03:53:20.628Z,80.80
2023-06-09T03:54:21.521Z,80.91
2023-06-09T03:55:22.459Z,81.21
2023-06-09T03:56:23.351Z,81.52
2023-06-09T03:57:24.259Z,81.21
2023-06-09T03:58:25.186Z,81.41
2023-06-09T03:59:26.105Z,81.31
2023-06-09T04:00:27.009Z,81.31
2023-06-09T04:01:27.962Z,81.31
2023-06-09T04:02:29.027Z,81.62
2023-06-09T04:03:29.554Z,81.52
2023-06-09T04:04:30.532Z,81.41
2023-06-09T04:05:31.006Z,81.52
2023-06-09T04:06:31.902Z,81.41
2023-06-09T04:07:32.824Z,81.31
2023-06-09T04:08:33.722Z,81.41
2023-06-09T04:09:34.647Z,81.52
2023-06-09T04:10:35.569Z,81.72
2023-06-09T04:11:36.475Z,81.72
2023-06-09T04:12:37.369Z,81.82
2023-06-09T04:13:38.359Z,81.82
2023-06-09T04:14:38.804Z,81.82
2023-06-09T04:15:39.682Z,81.92
2023-06-09T04:16:40.830Z,81.82
2023-06-09T04:17:41.275Z,81.82
2023-06-09T04:18:41.781Z,81.82
2023-06-09T04:19:42.727Z,81.82
2023-06-09T04:20:43.649Z,81.82
2023-06-09T04:21:44.558Z,81.92
2023-06-09T04:22:45.472Z,81.82
2023-06-09T04:23:47.841Z,81.72
2023-06-09T04:24:47.216Z,81.48
2023-06-09T04:25:48.119Z,81.48
2023-06-09T04:26:49.041Z,81.58
2023-06-09T04:27:50.215Z,81.27
2023-06-09T04:28:50.615Z,81.27
2023-06-09T04:29:51.536Z,81.38
2023-06-09T04:30:52.428Z,81.38
2023-06-09T04:31:53.368Z,81.27
2023-06-09T04:32:54.309Z,81.48
2023-06-09T04:33:54.813Z,81.48
2023-06-09T04:34:55.263Z,81.58
2023-06-09T04:35:56.872Z,81.58
2023-06-09T04:36:57.136Z,81.58
2023-06-09T04:37:57.713Z,81.68
2023-06-09T04:38:58.113Z,81.58
2023-06-09T04:39:59.011Z,81.68
2023-06-09T04:40:59.950Z,81.58
2023-06-09T04:42:02.256Z,81.78
2023-06-09T04:43:01.668Z,81.68
2023-06-09T04:44:02.563Z,81.58
2023-06-09T04:45:03.395Z,81.58
2023-06-09T04:46:04.312Z,81.27
2023-06-09T04:47:05.206Z,81.38
2023-06-09T04:48:06.266Z,81.38
2023-06-09T04:49:06.764Z,81.27
2023-06-09T04:50:08.235Z,81.27
2023-06-09T04:51:08.338Z,81.27
2023-06-09T04:52:09.281Z,81.24
2023-06-09T04:53:10.174Z,81.04
2023-06-09T04:54:11.142Z,80.93
2023-06-09T04:55:12.013Z,81.24
2023-06-09T04:56:12.931Z,80.93
2023-06-09T04:57:13.825Z,81.04
2023-06-09T04:58:14.734Z,80.73
2023-06-09T04:59:15.656Z,80.83
2023-06-09T05:00:16.619Z,80.73
2023-06-09T05:01:17.550Z,80.83
2023-06-09T05:02:18.448Z,80.83
2023-06-09T05:03:19.586Z,80.90
2023-06-09T05:04:20.080Z,80.79
2023-06-09T05:05:21.068Z,80.90
2023-06-09T05:06:21.522Z,80.49
2023-06-09T05:07:22.429Z,80.69
2023-06-09T05:08:23.344Z,80.79
2023-06-09T05:09:24.327Z,80.79
2023-06-09T05:10:24.821Z,80.49
2023-06-09T05:11:25.727Z,80.90
2023-06-09T05:12:26.627Z,80.79
2023-06-09T05:13:27.527Z,80.49
2023-06-09T05:14:31.111Z,80.59
2023-06-09T05:15:29.287Z,80.69
2023-06-09T05:16:30.199Z,80.90
2023-06-09T05:17:31.104Z,80.79
2023-06-09T05:18:32.017Z,80.15
2023-06-09T05:19:32.920Z,80.15
2023-06-09T05:20:34.443Z,80.05
2023-06-09T05:21:34.357Z,80.05
2023-06-09T05:22:35.268Z,79.94
2023-06-09T05:23:36.213Z,79.85
2023-06-09T05:24:37.138Z,80.05
2023-06-09T05:25:38.037Z,79.85
2023-06-09T05:26:38.939Z,79.50
2023-06-09T05:27:39.856Z,79.60
2023-06-09T05:28:40.769Z,79.80
2023-06-09T05:29:41.649Z,79.80
2023-06-09T05:30:42.571Z,79.71
2023-06-09T05:31:43.495Z,79.71
2023-06-09T05:32:44.448Z,79.60
2023-06-09T05:33:45.415Z,79.30
2023-06-09T05:34:46.299Z,79.36
2023-06-09T05:35:47.219Z,79.26
2023-06-09T05:36:48.109Z,79.36
2023-06-09T05:37:49.044Z,79.16
2023-06-09T05:38:49.952Z,79.36
2023-06-09T05:39:50.863Z,78.86
2023-06-09T05:40:51.772Z,79.26
2023-06-09T05:41:52.686Z,79.06
2023-06-09T05:42:53.607Z,78.62
2023-06-09T05:43:54.525Z,78.52
2023-06-09T05:44:55.410Z,78.62
2023-06-09T05:45:56.462Z,78.11
2023-06-09T05:46:56.881Z,78.52
2023-06-09T05:47:57.821Z,78.31
2023-06-09T05:48:58.720Z,78.38
2023-06-09T05:49:59.618Z,78.08
2023-06-09T05:51:00.520Z,78.17
2023-06-09T05:52:01.443Z,78.58
2023-06-09T05:53:02.359Z,78.08
2023-06-09T05:54:03.248Z,77.94
2023-06-09T05:55:04.154Z,77.64
2023-06-09T05:56:05.061Z,77.43
2023-06-09T05:57:06.014Z,77.13
2023-06-09T05:58:06.886Z,77.03
2023-06-09T05:59:07.799Z,77.13
2023-06-09T06:00:08.921Z,77.03
2023-06-09T06:01:09.397Z,76.82
2023-06-09T06:02:09.810Z,76.79
2023-06-09T06:03:11.001Z,76.69
2023-06-09T06:04:11.648Z,77.09
2023-06-09T06:05:12.057Z,76.69
2023-06-09T06:06:12.987Z,76.59
2023-06-09T06:07:13.897Z,76.48
2023-06-09T06:08:14.798Z,75.84
2023-06-09T06:09:15.732Z,75.44
2023-06-09T06:10:16.623Z,74.93
2023-06-09T06:11:17.570Z,74.93
2023-06-09T06:12:18.482Z,75.00
2023-06-09T06:13:19.369Z,75.00
2023-06-09T06:14:20.268Z,74.69
2023-06-09T06:15:21.225Z,74.40
2023-06-09T06:16:22.253Z,73.89
2023-06-09T06:17:22.813Z,73.85
2023-06-09T06:18:23.703Z,73.85
2023-06-09T06:19:24.643Z,73.45
2023-06-09T06:20:25.605Z,73.25
2023-06-09T06:21:26.499Z,73.42
2023-06-09T06:22:27.402Z,73.52
2023-06-09T06:23:27.924Z,73.62
2023-06-09T06:24:29.366Z,73.62
2023-06-09T06:25:29.784Z,72.88
2023-06-09T06:26:30.663Z,72.78
2023-06-09T06:27:31.576Z,72.78
2023-06-09T06:28:32.476Z,72.47
2023-06-09T06:29:33.409Z,72.17
2023-06-09T06:30:34.291Z,71.64
2023-06-09T06:31:35.280Z,71.33
2023-06-09T06:32:36.170Z,71.23
2023-06-09T06:33:38.873Z,71.44
2023-06-09T06:34:37.806Z,70.59
2023-06-09T06:35:38.705Z,70.90
2023-06-09T06:36:39.652Z,71.40
2023-06-09T06:37:40.622Z,71.60
2023-06-09T06:38:41.541Z,71.56
2023-06-09T06:39:42.458Z,71.26
2023-06-09T06:40:43.404Z,70.36
2023-06-09T06:41:44.278Z,70.96
2023-06-09T06:42:45.222Z,70.63
2023-06-09T06:43:46.157Z,70.53
2023-06-09T06:44:47.067Z,70.43
2023-06-09T06:45:47.964Z,69.82
2023-06-09T06:46:48.945Z,69.82
2023-06-09T06:47:49.500Z,69.32
2023-06-09T06:48:50.362Z,69.32
2023-06-09T06:49:51.308Z,69.79
2023-06-09T06:50:52.252Z,69.18
2023-06-09T06:51:53.152Z,69.29
2023-06-09T06:52:54.135Z,70.29
2023-06-09T06:53:55.058Z,69.49
2023-06-09T06:54:55.933Z,69.49
2023-06-09T06:55:56.840Z,69.38
2023-06-09T06:56:57.792Z,69.45
2023-06-09T06:57:58.723Z,69.06
2023-06-09T06:58:59.654Z,68.85
2023-06-09T07:00:04.145Z,69.25
2023-06-09T07:01:01.548Z,69.15
2023-06-09T07:02:02.480Z,69.06
2023-06-09T07:03:03.407Z,68.92
2023-06-09T07:04:04.345Z,69.12
2023-06-09T07:05:05.240Z,68.62
2023-06-09T07:06:06.173Z,68.52
2023-06-09T07:07:07.093Z,68.08
2023-06-09T07:08:08.017Z,68.25
2023-06-09T07:09:08.903Z,67.75
2023-06-09T07:10:10.094Z,68.05
2023-06-09T07:11:10.647Z,68.05
2023-06-09T07:12:11.537Z,67.65
2023-06-09T07:13:12.451Z,68.25
2023-06-09T07:14:14.489Z,67.75
2023-06-09T07:15:14.201Z,67.25
2023-06-09T07:16:15.152Z,68.15
2023-06-09T07:17:16.070Z,66.75
2023-06-09T07:18:17.057Z,66.35
2023-06-09T07:19:17.484Z,67.11
2023-06-09T07:20:18.392Z,67.11
2023-06-09T07:21:19.280Z,66.61
2023-06-09T07:22:20.186Z,66.71
2023-06-09T07:23:21.080Z,66.61
2023-06-09T07:24:22.065Z,66.71
2023-06-09T07:25:22.995Z,67.42
2023-06-09T07:26:23.881Z,67.11
2023-06-09T07:27:24.828Z,67.29
2023-06-09T07:28:25.806Z,66.28
2023-06-09T07:29:26.781Z,66.88
2023-06-09T07:30:30.921Z,66.68
2023-06-09T07:31:28.394Z,66.58
2023-06-09T07:32:30.401Z,66.08
2023-06-09T07:33:29.782Z,66.68
2023-06-09T07:34:30.722Z,66.88
2023-06-09T07:35:31.623Z,66.58
2023-06-09T07:36:32.547Z,66.85
2023-06-09T07:37:33.452Z,67.35
2023-06-09T07:38:34.970Z,67.05
2023-06-09T07:39:34.878Z,65.85
2023-06-09T07:40:35.806Z,65.75
2023-06-09T07:41:36.704Z,66.55
2023-06-09T07:42:37.615Z,65.85
2023-06-09T07:43:38.543Z,65.75
2023-06-09T07:44:39.435Z,65.42
2023-06-09T07:45:40.346Z,65.31
2023-06-09T07:46:41.301Z,65.82
2023-06-09T07:47:42.415Z,65.42
2023-06-09T07:48:42.309Z,65.12
2023-06-09T07:49:43.294Z,65.01
2023-06-09T07:51:45.940Z,64.28
2023-06-09T07:52:45.895Z,63.98
2023-06-09T07:53:46.827Z,64.18
2023-06-09T07:54:47.840Z,64.28
2023-06-09T07:55:48.712Z,64.28
2023-06-09T07:56:50.595Z,64.39
2023-06-09T07:57:53.907Z,64.48
2023-06-09T07:58:51.320Z,63.98
2023-06-09T07:59:52.222Z,64.39
2023-06-09T08:00:53.144Z,64.39
2023-06-09T08:01:54.093Z,64.09
2023-06-09T08:02:55.254Z,63.28
2023-06-09T08:03:55.776Z,64.39
2023-06-09T08:04:56.625Z,63.65
2023-06-09T08:05:57.076Z,63.25
2023-06-09T08:06:57.771Z,62.25
2023-06-09T08:07:58.682Z,63.06
2023-06-09T08:08:59.599Z,62.45
2023-06-09T08:10:00.495Z,63.15
2023-06-09T08:11:01.470Z,64.15
2023-06-09T08:12:02.375Z,63.35
2023-06-09T08:13:03.296Z,63.42
2023-06-09T08:14:04.194Z,62.32
2023-06-09T08:15:05.103Z,62.12
2023-06-09T08:16:06.064Z,62.62
2023-06-09T08:17:06.968Z,63.12
2023-06-09T08:18:08.011Z,61.52
2023-06-09T08:19:08.452Z,61.32
2023-06-09T08:20:09.632Z,61.02
2023-06-09T08:21:10.200Z,61.59
2023-06-09T08:22:11.118Z,60.99
2023-06-09T08:23:12.931Z,61.40
2023-06-09T08:24:12.995Z,61.29
2023-06-09T08:25:13.453Z,61.49
2023-06-09T08:26:14.422Z,61.29
2023-06-09T08:27:15.314Z,61.69
2023-06-09T08:28:16.205Z,60.39
2023-06-09T08:29:17.106Z,60.29
2023-06-09T08:30:18.060Z,60.27
2023-06-09T08:31:19.090Z,59.27
2023-06-09T08:32:19.538Z,59.86
2023-06-09T08:33:20.545Z,60.06
2023-06-09T08:34:20.962Z,59.97
2023-06-09T08:35:21.912Z,60.46
2023-06-09T08:36:22.805Z,60.46
2023-06-09T08:37:23.739Z,59.56
2023-06-09T08:38:24.662Z,59.86
2023-06-09T08:39:25.593Z,60.57
2023-06-09T08:40:27.414Z,60.86
2023-06-09T08:41:27.308Z,60.03
2023-06-09T08:42:28.209Z,59.44
2023-06-09T08:43:29.119Z,60.24
2023-06-09T08:44:30.041Z,61.24
2023-06-09T08:45:30.958Z,59.74
2023-06-09T08:46:31.920Z,59.91
2023-06-09T08:47:32.853Z,59.31
2023-06-09T08:48:33.753Z,58.11
2023-06-09T08:49:34.679Z,58.73
2023-06-09T08:50:35.565Z,59.04
2023-06-09T08:51:36.467Z,57.84
2023-06-09T08:52:37.371Z,59.14
2023-06-09T08:53:38.319Z,58.64
2023-06-09T08:54:39.240Z,59.04
2023-06-09T08:55:40.147Z,58.84
2023-06-09T08:56:41.065Z,58.54
2023-06-09T08:57:43.017Z,59.21
2023-06-09T08:58:42.918Z,59.21
2023-06-09T08:59:43.819Z,58.91
2023-06-09T09:00:44.724Z,59.70
2023-06-09T09:01:45.806Z,59.70
2023-06-09T09:02:46.242Z,59.28
2023-06-09T09:03:47.325Z,58.98
2023-06-09T09:04:47.709Z,58.78
2023-06-09T09:05:48.602Z,56.88
2023-06-09T09:06:49.502Z,58.18
2023-06-09T09:07:50.451Z,57.88
2023-06-09T09:08:51.343Z,58.08
2023-06-09T09:09:52.238Z,57.98
2023-06-09T09:10:53.145Z,57.88
2023-06-09T09:11:54.046Z,58.88
2023-06-09T09:12:54.968Z,59.48
2023-06-09T09:13:55.982Z,59.48
2023-06-09T09:14:56.859Z,59.65
2023-06-09T09:15:57.798Z,59.45
2023-06-09T09:16:58.809Z,58.95
2023-06-09T09:17:59.293Z,59.65
2023-06-09T09:19:00.193Z,58.45
2023-06-09T09:20:01.045Z,58.12
2023-06-09T09:21:01.956Z,57.93
2023-06-09T09:22:02.896Z,59.22
2023-06-09T09:23:03.855Z,58.12
2023-06-09T09:24:04.759Z,58.72
2023-06-09T09:25:05.645Z,57.73
2023-06-09T09:26:06.576Z,57.40
2023-06-09T09:27:07.540Z,55.51
2023-06-09T09:28:08.444Z,55.80
2023-06-09T09:29:09.319Z,55.11
2023-06-09T09:30:10.918Z,55.61
2023-06-09T09:31:10.915Z,56.01
2023-06-09T09:32:11.789Z,56.18
2023-06-09T09:33:12.747Z,56.48
2023-06-09T09:34:13.247Z,56.98
2023-06-09T09:35:14.969Z,57.28
2023-06-09T09:36:14.889Z,56.75
2023-06-09T09:37:15.792Z,55.46
2023-06-09T09:38:16.688Z,55.35
2023-06-09T09:39:17.591Z,55.65
2023-06-09T09:40:18.888Z,56.02
2023-06-09T09:41:19.271Z,54.43
2023-06-09T09:42:20.161Z,54.83
2023-06-09T09:43:21.938Z,55.03
2023-06-09T09:44:21.879Z,54.24
2023-06-09T09:45:22.794Z,54.43
2023-06-09T09:46:23.778Z,54.41
2023-06-09T09:47:24.269Z,54.80
2023-06-09T09:48:25.166Z,54.80
2023-06-09T09:49:26.097Z,53.41
2023-06-09T09:50:27.044Z,52.72
2023-06-09T09:51:27.926Z,51.30
2023-06-09T09:52:28.852Z,50.70
2023-06-09T09:53:29.784Z,52.29
2023-06-09T09:54:30.709Z,51.60
2023-06-09T09:55:32.428Z,52.29
2023-06-09T09:56:32.357Z,51.79
2023-06-09T09:57:33.318Z,52.89
2023-06-09T09:58:34.215Z,52.00
2023-06-09T09:59:35.143Z,52.39
2023-06-09T10:00:36.079Z,53.39
2023-06-09T10:01:36.967Z,52.17
2023-06-09T10:02:38.672Z,52.76
2023-06-09T10:03:38.973Z,51.47
2023-06-09T10:04:39.572Z,51.57
2023-06-09T10:05:40.439Z,52.07
2023-06-09T10:06:41.331Z,52.07
2023-06-09T10:07:42.228Z,52.54
2023-06-09T10:08:43.167Z,51.84
2023-06-09T10:09:44.931Z,52.24
2023-06-09T10:10:44.848Z,52.04
2023-06-09T10:11:46.421Z,52.64
2023-06-09T10:12:46.366Z,51.62
2023-06-09T10:13:47.925Z,51.42
2023-06-09T10:14:47.832Z,51.23
2023-06-09T10:15:48.814Z,51.32
2023-06-09T10:16:49.753Z,50.13
2023-06-09T10:17:50.735Z,50.43
2023-06-09T10:18:51.164Z,50.83
2023-06-09T10:19:52.098Z,51.03
2023-06-09T10:20:53.001Z,51.52
2023-06-09T10:21:54.465Z,51.52
2023-06-09T10:22:54.896Z,51.23
2023-06-09T10:23:55.952Z,50.83
2023-06-09T10:24:56.362Z,49.44
2023-06-09T10:25:57.283Z,49.14
2023-06-09T10:26:58.200Z,48.77
2023-06-09T10:27:59.133Z,50.16
2023-06-09T10:29:00.058Z,49.93
2023-06-09T10:30:01.975Z,49.14
2023-06-09T10:31:01.907Z,50.23
2023-06-09T10:32:02.980Z,50.73
2023-06-09T10:33:03.448Z,49.74
2023-06-09T10:34:04.361Z,51.03
2023-06-09T10:35:05.597Z,51.42
2023-06-09T10:36:06.244Z,50.31
2023-06-09T10:37:07.134Z,49.41
2023-06-09T10:38:08.037Z,50.18
2023-06-09T10:39:08.947Z,48.60
2023-06-09T10:40:10.073Z,48.97
2023-06-09T10:41:10.620Z,49.86
2023-06-09T10:42:11.559Z,48.97
2023-06-09T10:43:12.464Z,49.37
2023-06-09T10:44:13.366Z,48.77
2023-06-09T10:45:14.363Z,48.25
2023-06-09T10:46:15.385Z,47.56
2023-06-09T10:47:15.799Z,47.44
2023-06-09T10:48:16.776Z,48.53
2023-06-09T10:49:17.683Z,47.53
2023-06-09T10:50:18.631Z,46.84
2023-06-09T10:51:19.538Z,46.55
2023-06-09T10:52:20.455Z,46.25
2023-06-09T10:53:21.354Z,45.56
2023-06-09T10:54:22.280Z,46.92
2023-06-09T10:55:23.189Z,45.63
2023-06-09T10:56:24.078Z,44.74
2023-06-09T10:57:24.989Z,45.23
2023-06-09T10:58:25.890Z,44.35
2023-06-09T10:59:26.897Z,44.15
2023-06-09T11:00:27.357Z,42.76
2023-06-09T11:01:28.339Z,43.16
2023-06-09T11:02:29.257Z,42.76
2023-06-09T11:03:30.174Z,42.17
2023-06-09T11:04:31.089Z,42.05
2023-06-09T11:05:32.012Z,40.96
2023-06-09T11:06:32.915Z,40.56
2023-06-09T11:07:33.831Z,40.76
2023-06-09T11:08:34.738Z,40.86
2023-06-09T11:09:36.469Z,41.44
2023-06-09T11:10:36.370Z,40.55
2023-06-09T11:11:37.262Z,41.33
2023-06-09T11:12:38.229Z,40.74
2023-06-09T11:13:39.349Z,40.53
2023-06-09T11:14:39.769Z,38.47
2023-06-09T11:15:40.672Z,39.46
2023-06-09T11:16:41.573Z,39.36
2023-06-09T11:17:43.520Z,40.53
2023-06-09T11:18:43.837Z,39.43
2023-06-09T11:19:44.314Z,40.13
2023-06-09T11:20:45.220Z,40.53
2023-06-09T11:21:46.111Z,39.54
2023-06-09T11:22:47.098Z,39.54
2023-06-09T11:23:48.081Z,39.43
2023-06-09T11:24:48.956Z,38.55
2023-06-09T11:25:49.869Z,39.24
2023-06-09T11:26:50.769Z,38.94
2023-06-09T11:27:51.787Z,39.64
2023-06-09T11:28:52.980Z,39.43
2023-06-09T11:29:52.901Z,40.42
2023-06-09T11:30:53.608Z,39.72
2023-06-09T11:31:54.510Z,38.13
2023-06-09T11:32:55.486Z,38.73
2023-06-09T11:33:55.916Z,38.90
2023-06-09T11:34:58.559Z,38.61
2023-06-09T11:35:57.420Z,37.11
2023-06-09T11:36:58.363Z,36.82
2023-06-09T11:37:59.304Z,37.30
2023-06-09T11:39:00.237Z,37.01
2023-06-09T11:40:02.001Z,37.51
2023-06-09T11:41:01.956Z,38.10
2023-06-09T11:42:02.879Z,37.09
2023-06-09T11:43:03.873Z,37.39
2023-06-09T11:44:04.780Z,37.98
2023-06-09T11:45:05.690Z,37.39
2023-06-09T11:46:06.758Z,38.75
2023-06-09T11:47:09.013Z,37.66
2023-06-09T11:48:07.992Z,37.87
2023-06-09T11:49:08.938Z,37.66
2023-06-09T11:50:10.064Z,37.95
2023-06-09T11:51:11.556Z,37.95
2023-06-09T11:52:11.491Z,37.95
2023-06-09T11:53:13.082Z,37.93
2023-06-09T11:54:12.963Z,38.12
2023-06-09T11:55:14.539Z,37.63
2023-06-09T11:56:14.614Z,38.02
2023-06-09T11:57:15.977Z,37.74
2023-06-09T11:58:15.872Z,37.65
2023-06-09T11:59:16.881Z,36.36
2023-06-09T12:00:21.700Z,36.68
2023-06-09T12:01:18.972Z,37.57
2023-06-09T12:02:19.019Z,38.45
2023-06-09T12:03:19.708Z,37.26
2023-06-09T12:04:20.241Z,36.36
2023-06-09T12:05:21.204Z,35.88
2023-06-09T12:06:22.092Z,36.55
2023-06-09T12:07:23.984Z,36.65
2023-06-09T12:08:23.876Z,36.25
2023-06-09T12:09:29.565Z,37.24
2023-06-09T12:10:25.556Z,37.43
2023-06-09T12:11:26.460Z,36.74
2023-06-09T12:12:27.990Z,36.15
2023-06-09T12:13:27.893Z,35.74
2023-06-09T12:14:29.804Z,36.23
2023-06-09T12:15:35.936Z,36.43
2023-06-09T12:16:30.577Z,36.71
2023-06-09T12:17:31.148Z,36.71
2023-06-09T12:18:32.500Z,36.51
2023-06-09T12:19:32.472Z,36.69
2023-06-09T12:20:37.845Z,37.01
2023-06-09T12:21:34.824Z,37.28
2023-06-09T12:22:34.704Z,37.57
2023-06-09T12:23:35.699Z,38.66
2023-06-09T12:24:36.620Z,37.87
2023-06-09T12:25:37.654Z,36.59
2023-06-09T12:26:43.049Z,36.20
2023-06-09T12:27:38.968Z,36.59
2023-06-09T12:28:39.643Z,36.77
2023-06-09T12:29:40.149Z,37.07
2023-06-09T12:30:40.748Z,37.07
2023-06-09T12:31:41.549Z,37.26
2023-06-09T12:32:43.818Z,37.38
2023-06-09T12:33:43.445Z,37.48
2023-06-09T12:34:43.929Z,37.79
2023-06-09T12:35:44.939Z,38.18
2023-06-09T12:36:45.424Z,38.87
2023-06-09T12:37:47.547Z,38.76
2023-06-09T12:38:47.040Z,38.26
2023-06-09T12:39:47.590Z,38.76
2023-06-09T12:40:47.993Z,38.93
2023-06-09T12:41:49.112Z,37.85
2023-06-09T12:42:51.046Z,36.97
2023-06-09T12:43:50.564Z,38.74
2023-06-09T12:44:51.472Z,37.76
2023-06-09T12:45:52.442Z,38.03
2023-06-09T12:46:53.474Z,38.84
2023-06-09T12:47:54.087Z,38.34
2023-06-09T12:48:54.653Z,38.74
2023-06-09T12:49:56.012Z,37.38
2023-06-09T12:50:55.945Z,37.89
2023-06-09T12:51:56.988Z,37.79
2023-06-09T12:52:57.467Z,38.09
2023-06-09T12:53:57.922Z,38.60
2023-06-09T12:55:10.877Z,38.89
2023-06-09T12:55:59.818Z,38.99
2023-06-09T12:57:00.401Z,39.39
2023-06-09T12:58:01.539Z,39.47
2023-06-09T12:59:01.577Z,39.07
2023-06-09T13:00:19.623Z,38.95
2023-06-09T13:01:04.032Z,39.44
2023-06-09T13:02:03.792Z,38.66
2023-06-09T13:03:05.022Z,38.34
2023-06-09T13:04:05.175Z,39.13